createdAt,value
2018-06-21T00:00:11.474Z,19.80
2018-06-21T00:02:39.751Z,19.80
2018-06-21T00:05:15.112Z,19.80
2018-06-21T00:07:43.340Z,19.80
2018-06-21T00:10:11.528Z,19.70
2018-06-21T00:12:40.684Z,19.70
2018-06-21T00:15:08.899Z,19.60
2018-06-21T00:17:37.132Z,19.60
2018-06-21T00:20:10.197Z,19.60
2018-06-21T00:22:38.426Z,19.60
2018-06-21T00:25:06.640Z,19.50
2018-06-21T00:30:05.488Z,19.40
2018-06-21T00:32:36.722Z,19.30
2018-06-21T00:35:08.559Z,19.20
2018-06-21T00:37:37.078Z,19.20
2018-06-21T00:40:05.320Z,19.10
2018-06-21T00:42:33.572Z,19.10
2018-06-21T00:45:01.905Z,19.00
2018-06-21T00:47:30.189Z,19.00
2018-06-21T00:52:31.541Z,19.00
2018-06-21T00:54:59.750Z,19.20
2018-06-21T00:57:27.957Z,19.20
2018-06-21T00:59:56.189Z,19.10
2018-06-21T01:02:24.398Z,19.00
2018-06-21T01:04:57.033Z,19.00
2018-06-21T01:07:25.219Z,18.90
2018-06-21T01:09:53.471Z,18.90
2018-06-21T01:14:52.740Z,18.80
2018-06-21T01:17:20.932Z,18.70
2018-06-21T01:19:49.160Z,18.70
2018-06-21T01:22:17.347Z,18.70
2018-06-21T01:27:13.580Z,18.80
2018-06-21T01:29:42.483Z,18.80
2018-06-21T01:34:38.972Z,18.80
2018-06-21T01:37:07.196Z,18.80
2018-06-21T01:39:35.415Z,18.80
2018-06-21T01:42:03.593Z,18.80
2018-06-21T01:44:31.802Z,18.80
2018-06-21T01:47:00.022Z,18.80
2018-06-21T01:49:28.219Z,18.80
2018-06-21T01:51:56.460Z,18.70
2018-06-21T01:54:24.715Z,18.70
2018-06-21T01:56:52.940Z,18.70
2018-06-21T01:59:21.248Z,18.60
2018-06-21T02:01:49.452Z,18.60
2018-06-21T02:04:17.740Z,18.60
2018-06-21T02:06:45.911Z,18.50
2018-06-21T02:09:14.187Z,18.60
2018-06-21T02:11:42.364Z,18.50
2018-06-21T02:14:10.627Z,18.50
2018-06-21T02:16:38.803Z,18.50
2018-06-21T02:19:07.051Z,18.50
2018-06-21T02:21:38.552Z,18.40
2018-06-21T02:24:11.015Z,18.40
2018-06-21T02:26:39.246Z,18.40
2018-06-21T02:29:07.468Z,18.40
2018-06-21T02:31:35.715Z,18.30
2018-06-21T02:34:03.956Z,18.30
2018-06-21T02:36:35.984Z,18.30
2018-06-21T02:39:06.089Z,18.30
2018-06-21T02:41:34.289Z,18.30
2018-06-21T02:44:02.556Z,18.30
2018-06-21T02:46:31.220Z,18.30
2018-06-21T02:48:59.411Z,18.30
2018-06-21T02:51:27.598Z,18.20
2018-06-21T02:53:58.701Z,18.30
2018-06-21T02:56:27.951Z,18.20
2018-06-21T02:58:56.192Z,18.20
2018-06-21T03:01:24.654Z,18.20
2018-06-21T03:03:53.053Z,18.20
2018-06-21T03:06:21.168Z,18.20
2018-06-21T03:08:52.700Z,18.20
2018-06-21T03:11:21.376Z,18.20
2018-06-21T03:13:49.591Z,18.20
2018-06-21T03:16:17.804Z,18.20
2018-06-21T03:18:46.488Z,18.20
2018-06-21T03:21:14.697Z,18.20
2018-06-21T03:23:46.880Z,18.20
2018-06-21T03:26:15.097Z,18.20
2018-06-21T03:28:43.366Z,18.20
2018-06-21T03:31:11.855Z,18.30
2018-06-21T03:33:40.584Z,18.30
2018-06-21T03:36:08.832Z,18.30
2018-06-21T03:38:37.023Z,18.40
2018-06-21T03:41:06.177Z,18.50
2018-06-21T03:43:34.451Z,18.60
2018-06-21T03:46:02.683Z,18.70
2018-06-21T03:48:31.120Z,18.90
2018-06-21T03:53:31.885Z,19.10
2018-06-21T03:56:00.369Z,19.20
2018-06-21T03:58:28.572Z,19.20
2018-06-21T04:00:56.768Z,19.30
2018-06-21T04:03:25.907Z,19.30
2018-06-21T04:05:54.103Z,19.40
2018-06-21T04:08:22.353Z,19.60
2018-06-21T04:10:51.088Z,20.00
2018-06-21T04:13:20.192Z,20.40
2018-06-21T04:15:48.465Z,20.80
2018-06-21T04:18:20.712Z,21.20
2018-06-21T04:20:49.235Z,21.40
2018-06-21T04:23:23.827Z,21.40
2018-06-21T04:25:52.523Z,21.40
2018-06-21T04:28:20.739Z,21.20
2018-06-21T04:30:48.965Z,21.20
2018-06-21T04:33:17.191Z,21.30
2018-06-21T04:35:45.411Z,21.60
2018-06-21T04:38:13.703Z,21.90
2018-06-21T04:40:42.240Z,22.00
2018-06-21T04:43:10.521Z,22.20
2018-06-21T04:48:06.916Z,23.90
2018-06-21T04:50:35.140Z,24.50
2018-06-21T04:53:05.035Z,24.30
2018-06-21T04:55:33.523Z,23.70
2018-06-21T04:58:02.032Z,23.30
2018-06-21T05:00:30.317Z,23.80
2018-06-21T05:02:58.551Z,24.90
2018-06-21T05:05:27.072Z,26.10
2018-06-21T05:07:55.309Z,27.30
2018-06-21T05:10:26.410Z,28.10
2018-06-21T05:12:54.692Z,28.80
2018-06-21T05:15:22.909Z,29.40
2018-06-21T05:17:51.160Z,30.00
2018-06-21T05:20:19.380Z,30.50
2018-06-21T05:22:51.440Z,30.70
2018-06-21T05:25:19.664Z,30.60
2018-06-21T05:27:48.038Z,30.50
2018-06-21T05:30:16.684Z,30.80
2018-06-21T05:32:45.015Z,30.90
2018-06-21T05:35:13.344Z,30.60
2018-06-21T05:37:41.559Z,30.70
2018-06-21T05:40:40.921Z,30.80
2018-06-21T05:43:09.441Z,30.80
2018-06-21T05:45:37.781Z,31.20
2018-06-21T05:48:06.199Z,31.50
2018-06-21T05:53:03.671Z,31.50
2018-06-21T05:55:36.904Z,31.90
2018-06-21T05:58:05.109Z,31.40
2018-06-21T06:00:33.328Z,30.90
2018-06-21T06:03:01.541Z,31.20
2018-06-21T06:05:29.816Z,31.70
2018-06-21T06:07:58.051Z,31.70
2018-06-21T06:10:26.396Z,32.30
2018-06-21T06:12:54.635Z,32.00
2018-06-21T06:15:22.884Z,32.00
2018-06-21T06:17:51.179Z,32.30
2018-06-21T06:20:19.574Z,32.70
2018-06-21T06:22:47.802Z,32.50
2018-06-21T06:27:44.312Z,32.00
2018-06-21T06:30:12.576Z,32.50
2018-06-21T06:32:40.869Z,33.00
2018-06-21T06:35:09.139Z,33.00
2018-06-21T06:37:37.484Z,32.90
2018-06-21T06:40:05.736Z,32.70
2018-06-21T06:42:33.986Z,32.80
2018-06-21T06:45:02.257Z,33.00
2018-06-21T06:47:30.501Z,32.80
2018-06-21T06:49:58.727Z,31.80
2018-06-21T06:52:26.912Z,30.50
2018-06-21T06:54:55.124Z,29.30
2018-06-21T06:57:24.244Z,28.40
2018-06-21T06:59:53.337Z,27.60
2018-06-21T07:02:21.492Z,27.10
2018-06-21T07:04:49.725Z,26.70
2018-06-21T07:07:17.980Z,26.50
2018-06-21T07:09:46.176Z,26.30
2018-06-21T07:12:14.349Z,26.30
2018-06-21T07:14:42.585Z,26.20
2018-06-21T07:17:10.749Z,26.20
2018-06-21T07:19:38.935Z,26.20
2018-06-21T07:22:08.657Z,26.30
2018-06-21T07:24:36.856Z,26.30
2018-06-21T07:27:06.008Z,26.40
2018-06-21T07:29:34.151Z,26.30
2018-06-21T07:32:02.369Z,26.20
2018-06-21T07:34:30.577Z,26.20
2018-06-21T07:36:59.576Z,26.20
2018-06-21T07:39:28.032Z,26.20
2018-06-21T07:41:56.531Z,26.20
2018-06-21T07:44:24.767Z,26.20
2018-06-21T07:46:53.488Z,26.30
2018-06-21T07:49:21.667Z,26.40
2018-06-21T07:51:50.454Z,26.50
2018-06-21T07:54:18.652Z,26.60
2018-06-21T07:56:50.413Z,26.60
2018-06-21T07:59:18.587Z,26.70
2018-06-21T08:01:47.048Z,26.80
2018-06-21T08:04:15.267Z,26.90
2018-06-21T08:06:43.517Z,26.90
2018-06-21T08:09:13.069Z,26.90
2018-06-21T08:11:41.286Z,27.10
2018-06-21T08:14:09.475Z,27.10
2018-06-21T08:16:39.687Z,27.20
2018-06-21T08:19:07.950Z,27.20
2018-06-21T08:21:36.188Z,27.40
2018-06-21T08:24:04.451Z,27.50
2018-06-21T08:26:33.083Z,27.70
2018-06-21T08:29:01.359Z,28.00
2018-06-21T08:31:29.604Z,28.40
2018-06-21T08:33:57.829Z,28.60
2018-06-21T08:36:26.092Z,28.60
2018-06-21T08:38:54.340Z,28.70
2018-06-21T08:41:22.696Z,28.60
2018-06-21T08:43:55.584Z,28.40
2018-06-21T08:46:23.864Z,28.40
2018-06-21T08:48:53.060Z,28.10
2018-06-21T08:51:21.336Z,28.00
2018-06-21T08:53:49.577Z,28.00
2018-06-21T08:56:17.808Z,28.20
2018-06-21T09:10:55.815Z,28.70
2018-06-21T09:13:36.027Z,27.80
2018-06-21T09:16:05.132Z,27.60
2018-06-21T09:18:34.526Z,27.60
2018-06-21T09:21:04.590Z,27.20
2018-06-21T09:23:32.824Z,27.00
2018-06-21T09:26:01.317Z,26.80
2018-06-21T09:28:41.558Z,26.90
2018-06-21T09:31:09.730Z,27.10
2018-06-21T09:33:38.029Z,27.50
2018-06-21T09:36:06.401Z,27.80
2018-06-21T09:38:40.133Z,28.20
2018-06-21T09:41:13.937Z,28.10
2018-06-21T09:44:03.825Z,28.00
2018-06-21T09:46:33.877Z,28.00
2018-06-21T09:48:53.580Z,27.90
2018-06-21T09:51:22.116Z,28.00
2018-06-21T09:56:18.665Z,28.20
2018-06-21T09:58:51.552Z,28.10
2018-06-21T10:01:19.731Z,28.20
2018-06-21T10:06:16.103Z,28.50
2018-06-21T10:08:44.959Z,28.60
2018-06-21T10:11:13.195Z,28.70
2018-06-21T10:13:41.407Z,28.50
2018-06-21T10:16:10.033Z,28.20
2018-06-21T10:18:38.257Z,28.10
2018-06-21T10:21:06.584Z,27.90
2018-06-21T10:23:34.962Z,27.50
2018-06-21T10:26:03.209Z,27.30
2018-06-21T10:31:04.616Z,26.80
2018-06-21T10:33:32.934Z,26.70
2018-06-21T10:36:01.737Z,27.00
2018-06-21T10:38:30.064Z,26.90
2018-06-21T10:40:59.224Z,27.10
2018-06-21T10:43:27.976Z,27.00
2018-06-21T10:46:00.470Z,27.20
2018-06-21T10:48:28.674Z,27.20
2018-06-21T10:53:25.255Z,26.20
2018-06-21T10:55:53.544Z,26.00
2018-06-21T10:58:21.756Z,26.10
2018-06-21T11:00:49.980Z,26.50
2018-06-21T11:03:18.254Z,26.90
2018-06-21T11:05:46.848Z,27.30
2018-06-21T11:08:15.119Z,27.40
2018-06-21T11:10:43.340Z,27.50
2018-06-21T11:13:11.547Z,27.50
2018-06-21T11:18:11.816Z,27.20
2018-06-21T11:20:40.061Z,27.00
2018-06-21T11:28:10.802Z,26.40
2018-06-21T11:30:42.232Z,26.60
2018-06-21T11:33:18.416Z,26.50
2018-06-21T11:35:46.640Z,26.30
2018-06-21T11:38:15.547Z,26.20
2018-06-21T11:40:43.687Z,26.20
2018-06-21T11:43:11.890Z,26.20
2018-06-21T11:45:47.312Z,26.00
2018-06-21T11:53:12.436Z,25.90
2018-06-21T11:55:41.119Z,25.60
2018-06-21T11:58:09.358Z,26.10
2018-06-21T12:00:37.576Z,26.00
2018-06-21T12:03:08.663Z,25.80
2018-06-21T12:05:36.954Z,26.00
2018-06-21T12:08:06.112Z,26.40
2018-06-21T12:10:34.316Z,26.40
2018-06-21T12:13:02.516Z,26.10
2018-06-21T12:15:31.021Z,26.20
2018-06-21T12:18:03.396Z,25.90
2018-06-21T12:20:31.668Z,26.10
2018-06-21T12:22:59.940Z,25.90
2018-06-21T12:25:28.127Z,25.40
2018-06-21T12:27:56.323Z,25.60
2018-06-21T12:30:24.549Z,25.60
2018-06-21T12:32:52.722Z,25.60
2018-06-21T12:35:20.947Z,25.60
2018-06-21T12:40:17.104Z,25.50
2018-06-21T12:45:13.276Z,25.30
2018-06-21T12:47:44.804Z,25.20
2018-06-21T12:50:13.106Z,25.50
2018-06-21T12:52:41.280Z,25.30
2018-06-21T12:57:38.483Z,25.50
2018-06-21T13:00:06.874Z,25.90
2018-06-21T13:02:42.700Z,25.50
2018-06-21T13:05:11.616Z,25.50
2018-06-21T13:07:40.772Z,25.40
2018-06-21T13:10:20.389Z,25.80
2018-06-21T13:15:24.178Z,26.30
2018-06-21T13:17:52.402Z,25.80
2018-06-21T13:20:20.701Z,25.90
2018-06-21T13:22:50.004Z,25.80
2018-06-21T13:25:18.253Z,26.00
2018-06-21T13:27:46.540Z,25.40
2018-06-21T13:30:15.009Z,25.60
2018-06-21T13:32:47.127Z,25.60
2018-06-21T13:35:15.491Z,25.40
2018-06-21T13:37:44.388Z,25.30
2018-06-21T13:40:12.869Z,25.80
2018-06-21T13:42:41.140Z,26.10
2018-06-21T13:45:09.406Z,25.80
2018-06-21T13:47:52.191Z,25.60
2018-06-21T13:50:21.230Z,25.10
2018-06-21T13:52:49.459Z,24.80
2018-06-21T13:55:17.995Z,24.40
2018-06-21T13:57:46.476Z,24.00
2018-06-21T14:00:14.791Z,23.70
2018-06-21T14:02:47.172Z,24.00
2018-06-21T14:05:19.073Z,24.10
2018-06-21T14:07:47.601Z,23.80
2018-06-21T14:12:43.815Z,24.10
2018-06-21T14:17:41.071Z,23.60
2018-06-21T14:22:37.513Z,23.10
2018-06-21T14:27:35.172Z,23.30
2018-06-21T14:30:03.458Z,23.40
2018-06-21T14:32:31.700Z,22.90
2018-06-21T14:35:05.170Z,22.90
2018-06-21T14:37:33.419Z,22.90
2018-06-21T14:40:02.348Z,23.00
2018-06-21T14:42:30.851Z,23.00
2018-06-21T14:44:59.097Z,22.80
2018-06-21T14:47:27.385Z,22.40
2018-06-21T14:49:59.855Z,22.40
2018-06-21T14:52:28.197Z,22.30
2018-06-21T14:54:56.752Z,22.60
2018-06-21T14:57:25.189Z,22.90
2018-06-21T14:59:53.544Z,23.00
2018-06-21T15:02:22.484Z,22.50
2018-06-21T15:07:25.895Z,22.10
2018-06-21T15:09:54.277Z,22.00
2018-06-21T15:12:23.628Z,22.00
2018-06-21T15:14:51.898Z,22.10
2018-06-21T15:17:20.492Z,22.20
2018-06-21T15:19:48.686Z,21.90
2018-06-21T15:22:16.997Z,21.90
2018-06-21T15:24:45.296Z,21.90
2018-06-21T15:27:13.701Z,22.00
2018-06-21T15:29:43.788Z,21.80
2018-06-21T15:32:12.164Z,21.60
2018-06-21T15:34:40.666Z,21.30
2018-06-21T15:37:08.860Z,21.40
2018-06-21T15:39:37.776Z,21.30
2018-06-21T15:42:06.328Z,21.10
2018-06-21T15:44:34.914Z,21.10
2018-06-21T15:49:38.135Z,21.00
2018-06-21T15:52:07.679Z,21.00
2018-06-21T15:54:35.899Z,21.10
2018-06-21T15:57:04.124Z,21.20
2018-06-21T15:59:32.296Z,21.20
2018-06-21T16:04:28.796Z,21.20
2018-06-21T16:07:00.421Z,21.30
2018-06-21T16:09:28.680Z,21.30
2018-06-21T16:11:57.012Z,21.40
2018-06-21T16:14:25.227Z,21.60
2018-06-21T16:16:53.659Z,21.70
2018-06-21T16:19:21.891Z,22.10
2018-06-21T16:21:50.324Z,22.30
2018-06-21T16:24:18.596Z,22.00
2018-06-21T16:26:46.883Z,21.80
2018-06-21T16:29:15.103Z,22.00
2018-06-21T16:31:43.403Z,21.90
2018-06-21T16:34:11.615Z,21.80
2018-06-21T16:36:39.873Z,21.80
2018-06-21T16:39:09.366Z,22.10
2018-06-21T16:41:39.332Z,22.70
2018-06-21T16:44:08.800Z,23.90
2018-06-21T16:46:37.124Z,23.30
2018-06-21T16:49:05.384Z,23.30
2018-06-21T16:51:33.592Z,22.30
2018-06-21T16:54:01.845Z,21.70
2018-06-21T16:56:31.047Z,23.40
2018-06-21T16:58:59.428Z,23.10
2018-06-21T17:01:27.825Z,21.90
2018-06-21T17:03:56.132Z,23.40
2018-06-21T17:06:27.852Z,24.50
2018-06-21T17:08:59.450Z,23.70
2018-06-21T17:11:27.687Z,23.10
2018-06-21T17:13:55.899Z,22.50
2018-06-21T17:16:24.161Z,22.50
2018-06-21T17:18:52.604Z,23.10
2018-06-21T17:21:20.860Z,23.90
2018-06-21T17:23:49.112Z,25.30
2018-06-21T17:26:18.146Z,25.50
2018-06-21T17:28:46.332Z,25.50
2018-06-21T17:31:14.659Z,25.70
2018-06-21T17:33:42.884Z,26.20
2018-06-21T17:36:14.700Z,25.10
2018-06-21T17:38:43.320Z,25.60
2018-06-21T17:41:11.573Z,26.30
2018-06-21T17:43:39.840Z,25.20
2018-06-21T17:46:08.291Z,25.20
2018-06-21T17:51:04.501Z,25.10
2018-06-21T17:53:32.717Z,24.80
2018-06-21T17:56:01.007Z,25.10
2018-06-21T17:58:29.233Z,24.90
2018-06-21T18:05:53.640Z,23.50
2018-06-21T18:08:22.104Z,23.00
2018-06-21T18:10:50.411Z,23.70
2018-06-21T18:13:18.623Z,24.20
2018-06-21T18:15:47.000Z,24.60
2018-06-21T18:20:45.120Z,24.60
2018-06-21T18:23:18.632Z,23.40
2018-06-21T18:28:20.022Z,24.20
2018-06-21T18:30:48.509Z,23.70
2018-06-21T18:33:16.730Z,24.10
2018-06-21T18:38:13.059Z,23.80
2018-06-21T18:40:41.700Z,23.60
2018-06-21T18:43:10.072Z,22.60
2018-06-21T18:45:38.889Z,23.50
2018-06-21T18:48:07.811Z,23.30
2018-06-21T18:50:36.132Z,23.80
2018-06-21T18:53:04.464Z,22.80
2018-06-21T18:55:32.652Z,22.40
2018-06-21T18:58:01.325Z,22.70
2018-06-21T19:00:29.667Z,22.50
2018-06-21T19:02:57.908Z,21.50
2018-06-21T19:08:00.641Z,20.10
2018-06-21T19:10:34.226Z,19.90
2018-06-21T19:13:02.478Z,19.50
2018-06-21T19:15:30.776Z,19.30
2018-06-21T19:17:58.996Z,19.10
2018-06-21T19:20:27.276Z,19.00
2018-06-21T19:22:58.390Z,19.00
2018-06-21T19:25:28.109Z,18.90
2018-06-21T19:27:56.393Z,18.80
2018-06-21T19:30:24.692Z,18.70
2018-06-21T19:32:54.010Z,18.60
2018-06-21T19:35:23.407Z,18.60
2018-06-21T19:40:21.881Z,18.40
2018-06-21T19:42:50.906Z,18.40
2018-06-21T19:45:19.520Z,18.40
2018-06-21T19:47:48.124Z,18.30
2018-06-21T19:50:16.495Z,18.20
2018-06-21T19:52:45.563Z,18.20
2018-06-21T19:55:18.630Z,18.20
2018-06-21T19:57:47.955Z,18.10
2018-06-21T20:00:16.357Z,18.10
2018-06-21T20:02:50.908Z,18.00
2018-06-21T20:05:19.215Z,18.00
2018-06-21T20:07:48.132Z,18.00
2018-06-21T20:10:17.656Z,17.80
2018-06-21T20:15:15.003Z,17.60
2018-06-21T20:20:17.594Z,17.40
2018-06-21T20:22:46.738Z,17.30
2018-06-21T20:25:15.261Z,17.20
2018-06-21T20:27:43.463Z,17.10
2018-06-21T20:30:14.620Z,17.00
2018-06-21T20:32:44.485Z,16.90
2018-06-21T20:35:12.768Z,16.70
2018-06-21T20:37:41.880Z,16.60
2018-06-21T20:40:14.065Z,16.60
2018-06-21T20:42:42.488Z,16.50
2018-06-21T20:45:11.341Z,16.40
2018-06-21T20:47:39.620Z,16.30
2018-06-21T20:55:11.325Z,16.00
2018-06-21T20:57:40.680Z,16.00
2018-06-21T21:00:08.957Z,15.90
2018-06-21T21:02:38.022Z,15.90
2018-06-21T21:05:10.512Z,15.80
2018-06-21T21:07:39.932Z,15.80
2018-06-21T21:10:10.924Z,15.70
2018-06-21T21:12:39.713Z,15.70
2018-06-21T21:15:08.860Z,15.70
2018-06-21T21:17:37.235Z,15.60
2018-06-21T21:20:06.212Z,15.40
2018-06-21T21:22:35.382Z,15.40
2018-06-21T21:25:07.385Z,15.30
2018-06-21T21:27:36.283Z,15.30
2018-06-21T21:30:07.168Z,15.20
2018-06-21T21:32:35.539Z,15.10
2018-06-21T21:35:03.880Z,15.20
2018-06-21T21:37:32.169Z,15.10
2018-06-21T21:40:05.724Z,15.00
2018-06-21T21:42:35.275Z,15.00
2018-06-21T21:45:04.072Z,14.80
2018-06-21T21:47:32.305Z,14.80
2018-06-21T21:50:00.807Z,14.80
2018-06-21T21:52:30.193Z,14.60
2018-06-21T21:54:58.542Z,14.60
2018-06-21T21:57:31.087Z,14.60
2018-06-21T21:59:59.612Z,14.50
2018-06-21T22:02:27.884Z,14.40
2018-06-21T22:04:56.200Z,14.30
2018-06-21T22:07:24.528Z,14.20
2018-06-21T22:09:52.824Z,14.20
2018-06-21T22:12:22.204Z,14.10
2018-06-21T22:14:51.046Z,14.00
2018-06-21T22:17:20.191Z,14.00
2018-06-21T22:19:48.545Z,13.90
2018-06-21T22:22:16.744Z,13.80
2018-06-21T22:24:45.000Z,13.70
2018-06-21T22:27:13.216Z,13.60
2018-06-21T22:32:10.212Z,13.40
2018-06-21T22:34:38.432Z,13.40
2018-06-21T22:37:06.675Z,13.30
2018-06-21T22:39:35.415Z,13.20
2018-06-21T22:42:03.651Z,13.30
2018-06-21T22:44:32.867Z,13.20
2018-06-21T22:47:01.195Z,13.20
2018-06-21T22:49:30.347Z,13.10
2018-06-21T22:51:58.584Z,13.10
2018-06-21T22:54:26.846Z,13.00
2018-06-21T22:56:55.344Z,13.00
2018-06-21T22:59:23.559Z,12.90
2018-06-21T23:01:52.101Z,12.80
2018-06-21T23:04:20.333Z,12.70
2018-06-21T23:06:48.596Z,12.60
2018-06-21T23:09:16.863Z,12.60
2018-06-21T23:11:53.769Z,12.50
2018-06-21T23:14:21.980Z,12.40
2018-06-21T23:19:27.579Z,12.40
2018-06-21T23:21:55.817Z,12.40
2018-06-21T23:24:24.823Z,12.30
2018-06-21T23:26:57.595Z,12.20
2018-06-21T23:29:25.908Z,12.10
2018-06-21T23:31:54.105Z,12.20
2018-06-21T23:34:22.839Z,12.20
2018-06-21T23:36:51.365Z,12.30
2018-06-21T23:39:19.856Z,12.20
2018-06-21T23:41:48.075Z,12.20
2018-06-21T23:44:16.308Z,12.20
2018-06-21T23:46:44.609Z,12.10
2018-06-21T23:49:13.447Z,12.10
2018-06-21T23:54:11.531Z,12.00
2018-06-21T23:56:40.404Z,12.00
2018-06-21T23:59:08.909Z,11.90
